Klar, wolkenlos
Wechselnd bewölkt
Wechselnd bewölkt
Wechselnd bewölkt
Wechselnd bewölkt
Klar mit einigen niederen Wolken
Wechselnd bewölkt
Klar mit einigen niederen Wolken
Klar mit einigen niederen Wolken
(°C)
13°
13°
14°
14°
15°
15°
16°
16°
17°
17°
18°
18°
19°
19°
19°
19°
19°
19°
(°C)
11°
13°
15°
17°
18°
19°
19°
19°
18°
N
N
NNW
NNW
NW
WNW
WNW
NW
NW
(km/h)
9-14
2-9
2-11
3-11
2-10
2-10
2-10
2-11
2-12
(mm)
0
0
0
0
0
0
0
0
0
(%)
5
11
16
10
5
5
0
0
0

Sonnenhöhe

/ 41.6°
sun-icon
UV 5
05:26
21:25
Zunehmender Halbmond (82°)
12:26
01:33

METAR für Rümlang / Rümlang (Dorfkern) (LSZH)

Zeit Bedingungen Temperatur/
Taupunkt
Wind Sichtweite Wetter Wolken Druck Änderung Roh
VFR 14°C / 7°C 340º variable 310º to 020º 4kt 9700m - Scattered Clouds 5000ft 1019 No Significant change LSZH 130720Z 34004KT 310V020 9999 SCT050 14/07 Q1019 NOSIG
VFR 13°C / 7°C 320º variable 300º to 360º 5kt 9700m - Few Clouds 5000ft 1019 No Significant change LSZH 130650Z 32005KT 300V360 9999 FEW050 13/07 Q1019 NOSIG
VFR 13°C / 7°C 2kt 9700m - Few Clouds 5000ft 1019 No Significant change LSZH 130620Z VRB02KT 9999 FEW050 13/07 Q1019 NOSIG
VFR 11°C / 7°C 340º variable 320º to 030º 3kt 9700m - Scattered Clouds 5000ft 1019 No Significant change LSZH 130550Z 34003KT 320V030 9999 SCT050 11/07 Q1019 NOSIG
VFR 11°C / 9°C 340º 4kt 9700m - Broken Clouds 5000ft 1019 No Significant change LSZH 130520Z 34004KT 9999 BKN050 11/09 Q1019 NOSIG
VFR 10°C / 8°C 2kt 9700m - Broken Clouds 5000ft 1019 No Significant change LSZH 130450Z VRB02KT 9999 BKN050 10/08 Q1019 NOSIG
VFR 9°C / 8°C 2kt 9700m - Broken Clouds 5000ft 1019 No Significant change LSZH 130420Z VRB02KT 9999 BKN050 09/08 Q1019 NOSIG
VFR 10°C / 8°C 50º 2kt 9700m - Broken Clouds 5000ft 1019 No Significant change LSZH 130350Z 05002KT 9999 BKN050 10/08 Q1019 NOSIG
VFR 10°C / 8°C 10º 2kt 9700m - Few Clouds 5000ft 1019 No Significant change LSZH 130320Z AUTO 01002KT 9999 FEW050 10/08 Q1019 NOSIG
VFR 10°C / 8°C 2kt 9700m - Few Clouds 5000ft
Scattered Clouds 6500ft
1018 No Significant change LSZH 130250Z AUTO VRB02KT 9999 FEW050 SCT065 10/08 Q1018 NOSIG
VFR 10°C / 8°C 2kt 9700m - Scattered Clouds 4900ft
Scattered Clouds 5500ft
Broken Clouds 6500ft
1018 No Significant change LSZH 130220Z AUTO VRB02KT 9999 SCT049 SCT055 BKN065 10/08 Q1018 NOSIG
VFR 10°C / 8°C 310º 3kt 9700m - Few Clouds 4900ft
Scattered Clouds 5500ft
1018 No Significant change LSZH 130150Z AUTO 31003KT 9999 FEW049 SCT055 10/08 Q1018 NOSIG
VFR 12°C / 8°C 40º 3kt 9700m Light Rain 1.00mm precipitation Scattered Clouds 5000ft
Broken Clouds 7500ft
1018 No Significant change LSZH 130120Z AUTO 04003KT 9999 -RA SCT050 BKN075 12/08 Q1018 NOSIG
VFR 12°C / 7°C 330º variable 290º to 010º 4kt 9700m - Scattered Clouds 5000ft
Scattered Clouds 6000ft
1018 No Significant change LSZH 130050Z AUTO 33004KT 290V010 9999 SCT050 SCT060 12/07 Q1018 NOSIG
VFR 11°C / 7°C 340º 4kt 9700m - Broken Clouds 5000ft 1018 No Significant change LSZH 130020Z AUTO 34004KT 9999 BKN050 11/07 Q1018 NOSIG
VFR 11°C / 7°C 340º 3kt 9700m - Scattered Clouds 5500ft
Scattered Clouds 6500ft
1018 No Significant change LSZH 122350Z AUTO 34003KT 9999 SCT055 SCT065 11/07 Q1018 NOSIG
VFR 11°C / 7°C 3kt 9700m - Scattered Clouds 5500ft
Broken Clouds 6500ft
1018 No Significant change LSZH 122320Z AUTO VRB03KT 9999 SCT055 BKN065 11/07 Q1018 NOSIG
VFR 10°C / 7°C 320º 5kt 9700m - Scattered Clouds 5500ft
Scattered Clouds 7500ft
1018 No Significant change LSZH 122250Z AUTO 32005KT 9999 SCT055 SCT075 10/07 Q1018 NOSIG
VFR 12°C / 6°C 350º 6kt 9700m - Few Clouds 7500ft 1018 No Significant change LSZH 122220Z AUTO 35006KT 9999 FEW075 12/06 Q1018 NOSIG
VFR 11°C / 7°C 330º 7kt 9700m - Clear 1018 No Significant change LSZH 122150Z AUTO 33007KT 9999 NCD 11/07 Q1018 NOSIG
VFR 13°C / 8°C 340º variable 290º to 020º 6kt 9700m - Scattered Clouds 6000ft
Broken Clouds 7000ft
1018 No Significant change LSZH 122120Z 34006KT 290V020 9999 SCT060 BKN070 13/08 Q1018 NOSIG
VFR 14°C / 7°C 340º 5kt 9700m - Few Clouds 6000ft
Scattered Clouds 7000ft
1018 No Significant change LSZH 122050Z 34005KT 9999 FEW060 SCT070 14/07 Q1018 NOSIG
VFR 14°C / 6°C 350º 5kt 9700m - Broken Clouds 6500ft 1018 No Significant change LSZH 122020Z 35005KT 9999 BKN065 14/06 Q1018 NOSIG
VFR 14°C / 7°C 340º 6kt 9700m in the Vicinity Showers Scattered Clouds 6500ft
Scattered Clouds 7500ft
1017 Temporary: Showers Rain . LSZH 121950Z 34006KT 9999 VCSH SCT065 SCT075 14/07 Q1017 TEMPO SHRA

VFR

14°C / 7°C

[Mehr]
Wind 340º variable 310º to 020º 4kt
Sichtweite 9700m
Wetter -
Wolken Scattered Clouds 5000ft
Druck 1019
Änderung No Significant change
Roh LSZH 130720Z 34004KT 310V020 9999 SCT050 14/07 Q1019 NOSIG

VFR

13°C / 7°C

[Mehr]
Wind 320º variable 300º to 360º 5kt
Sichtweite 9700m
Wetter -
Wolken Few Clouds 5000ft
Druck 1019
Änderung No Significant change
Roh LSZH 130650Z 32005KT 300V360 9999 FEW050 13/07 Q1019 NOSIG

VFR

13°C / 7°C

[Mehr]
Wind 2kt
Sichtweite 9700m
Wetter -
Wolken Few Clouds 5000ft
Druck 1019
Änderung No Significant change
Roh LSZH 130620Z VRB02KT 9999 FEW050 13/07 Q1019 NOSIG

VFR

11°C / 7°C

[Mehr]
Wind 340º variable 320º to 030º 3kt
Sichtweite 9700m
Wetter -
Wolken Scattered Clouds 5000ft
Druck 1019
Änderung No Significant change
Roh LSZH 130550Z 34003KT 320V030 9999 SCT050 11/07 Q1019 NOSIG

VFR

11°C / 9°C

[Mehr]
Wind 340º 4kt
Sichtweite 9700m
Wetter -
Wolken Broken Clouds 5000ft
Druck 1019
Änderung No Significant change
Roh LSZH 130520Z 34004KT 9999 BKN050 11/09 Q1019 NOSIG

VFR

10°C / 8°C

[Mehr]
Wind 2kt
Sichtweite 9700m
Wetter -
Wolken Broken Clouds 5000ft
Druck 1019
Änderung No Significant change
Roh LSZH 130450Z VRB02KT 9999 BKN050 10/08 Q1019 NOSIG

VFR

9°C / 8°C

[Mehr]
Wind 2kt
Sichtweite 9700m
Wetter -
Wolken Broken Clouds 5000ft
Druck 1019
Änderung No Significant change
Roh LSZH 130420Z VRB02KT 9999 BKN050 09/08 Q1019 NOSIG

VFR

10°C / 8°C

[Mehr]
Wind 50º 2kt
Sichtweite 9700m
Wetter -
Wolken Broken Clouds 5000ft
Druck 1019
Änderung No Significant change
Roh LSZH 130350Z 05002KT 9999 BKN050 10/08 Q1019 NOSIG

VFR

10°C / 8°C

[Mehr]
Wind 10º 2kt
Sichtweite 9700m
Wetter -
Wolken Few Clouds 5000ft
Druck 1019
Änderung No Significant change
Roh LSZH 130320Z AUTO 01002KT 9999 FEW050 10/08 Q1019 NOSIG

VFR

10°C / 8°C

[Mehr]
Wind 2kt
Sichtweite 9700m
Wetter -
Wolken Few Clouds 5000ft
Scattered Clouds 6500ft
Druck 1018
Änderung No Significant change
Roh LSZH 130250Z AUTO VRB02KT 9999 FEW050 SCT065 10/08 Q1018 NOSIG

VFR

10°C / 8°C

[Mehr]
Wind 2kt
Sichtweite 9700m
Wetter -
Wolken Scattered Clouds 4900ft
Scattered Clouds 5500ft
Broken Clouds 6500ft
Druck 1018
Änderung No Significant change
Roh LSZH 130220Z AUTO VRB02KT 9999 SCT049 SCT055 BKN065 10/08 Q1018 NOSIG

VFR

10°C / 8°C

[Mehr]
Wind 310º 3kt
Sichtweite 9700m
Wetter -
Wolken Few Clouds 4900ft
Scattered Clouds 5500ft
Druck 1018
Änderung No Significant change
Roh LSZH 130150Z AUTO 31003KT 9999 FEW049 SCT055 10/08 Q1018 NOSIG

VFR

12°C / 8°C

[Mehr]
Wind 40º 3kt
Sichtweite 9700m
Wetter Light Rain 1.00mm precipitation
Wolken Scattered Clouds 5000ft
Broken Clouds 7500ft
Druck 1018
Änderung No Significant change
Roh LSZH 130120Z AUTO 04003KT 9999 -RA SCT050 BKN075 12/08 Q1018 NOSIG

VFR

12°C / 7°C

[Mehr]
Wind 330º variable 290º to 010º 4kt
Sichtweite 9700m
Wetter -
Wolken Scattered Clouds 5000ft
Scattered Clouds 6000ft
Druck 1018
Änderung No Significant change
Roh LSZH 130050Z AUTO 33004KT 290V010 9999 SCT050 SCT060 12/07 Q1018 NOSIG

VFR

11°C / 7°C

[Mehr]
Wind 340º 4kt
Sichtweite 9700m
Wetter -
Wolken Broken Clouds 5000ft
Druck 1018
Änderung No Significant change
Roh LSZH 130020Z AUTO 34004KT 9999 BKN050 11/07 Q1018 NOSIG

VFR

11°C / 7°C

[Mehr]
Wind 340º 3kt
Sichtweite 9700m
Wetter -
Wolken Scattered Clouds 5500ft
Scattered Clouds 6500ft
Druck 1018
Änderung No Significant change
Roh LSZH 122350Z AUTO 34003KT 9999 SCT055 SCT065 11/07 Q1018 NOSIG

VFR

11°C / 7°C

[Mehr]
Wind 3kt
Sichtweite 9700m
Wetter -
Wolken Scattered Clouds 5500ft
Broken Clouds 6500ft
Druck 1018
Änderung No Significant change
Roh LSZH 122320Z AUTO VRB03KT 9999 SCT055 BKN065 11/07 Q1018 NOSIG

VFR

10°C / 7°C

[Mehr]
Wind 320º 5kt
Sichtweite 9700m
Wetter -
Wolken Scattered Clouds 5500ft
Scattered Clouds 7500ft
Druck 1018
Änderung No Significant change
Roh LSZH 122250Z AUTO 32005KT 9999 SCT055 SCT075 10/07 Q1018 NOSIG

VFR

12°C / 6°C

[Mehr]
Wind 350º 6kt
Sichtweite 9700m
Wetter -
Wolken Few Clouds 7500ft
Druck 1018
Änderung No Significant change
Roh LSZH 122220Z AUTO 35006KT 9999 FEW075 12/06 Q1018 NOSIG

VFR

11°C / 7°C

[Mehr]
Wind 330º 7kt
Sichtweite 9700m
Wetter -
Wolken Clear
Druck 1018
Änderung No Significant change
Roh LSZH 122150Z AUTO 33007KT 9999 NCD 11/07 Q1018 NOSIG

VFR

13°C / 8°C

[Mehr]
Wind 340º variable 290º to 020º 6kt
Sichtweite 9700m
Wetter -
Wolken Scattered Clouds 6000ft
Broken Clouds 7000ft
Druck 1018
Änderung No Significant change
Roh LSZH 122120Z 34006KT 290V020 9999 SCT060 BKN070 13/08 Q1018 NOSIG

VFR

14°C / 7°C

[Mehr]
Wind 340º 5kt
Sichtweite 9700m
Wetter -
Wolken Few Clouds 6000ft
Scattered Clouds 7000ft
Druck 1018
Änderung No Significant change
Roh LSZH 122050Z 34005KT 9999 FEW060 SCT070 14/07 Q1018 NOSIG

VFR

14°C / 6°C

[Mehr]
Wind 350º 5kt
Sichtweite 9700m
Wetter -
Wolken Broken Clouds 6500ft
Druck 1018
Änderung No Significant change
Roh LSZH 122020Z 35005KT 9999 BKN065 14/06 Q1018 NOSIG

VFR

14°C / 7°C

[Mehr]
Wind 340º 6kt
Sichtweite 9700m
Wetter in the Vicinity Showers
Wolken Scattered Clouds 6500ft
Scattered Clouds 7500ft
Druck 1017
Änderung Temporary: Showers Rain .
Roh LSZH 121950Z 34006KT 9999 VCSH SCT065 SCT075 14/07 Q1017 TEMPO SHRA

TAF für Rümlang / Rümlang (Dorfkern) (LSZH)

From till


Maximum Temperature 20ºC on . Minimum Temperature 12ºC on . Minimum Temperature 9ºC on .
From till Wind 2kt. Visibility 9700m. Broken Clouds 5000ft.
With 30% probability, Temporarly from till Wind 300º 8kt.
Becoming from till
Becoming from till
With 30% probability, Temporarly from till Rain . Broken Clouds 7000ft.

Roh: TAF LSZH 130525Z 1306/1412 VRB02KT 9999 BKN050 TX20/1315Z TN12/1306Z TN09/1404Z PROB30 TEMPO 1310/1317 30008KT BECMG 1315/1318 CAVOK BECMG 1406/1409 9999 BKN060 PROB30 TEMPO 1407/1412 RA BKN070

rainNOW: Regenvorhersage für Rümlang / Rümlang (Dorfkern) und Umgebung (25km Radius)

0.0 mm
0.0 mm
0.0 mm
0.0 mm
0.0 mm
0.0 mm
0.0 mm
0.0 mm
0.0 mm
0.0 mm
0.0 mm
0.0 mm

Radar- und Niederschlags-Nowcast für Rümlang / Rümlang (Dorfkern)

Nieselregen
Leicht
Moderat
Stark
Sehr schwer
Hagel

Die Ortsmarkierung zeigt auf Rümlang / Rümlang (Dorfkern). Diese Animation zeigt das Niederschlagsradar für den ausgewählten Zeitraum sowie eine 2h-Vorhersage. Orange Kreuze zeigen Blitze an. Daten bereitgestellt von nowcast.de (verfügbar in den USA, Europa, Australien). Nieselregen oder leichter Schneefall können für den Radar unsichtbar sein. Die Niederschlagsintensität ist farbcodiert und reicht von hellblau bis rot.

Aktuelle Satelliten- und Regenbilder für Rümlang / Rümlang (Dorfkern), Schweiz

Die Standortmarkierung ist platziert auf Rümlang / Rümlang (Dorfkern). [Mehr]

Das Echtzeit-Satellitenbild kombiniert sichtbares Licht während des Tages mit Infrarotstrahlung während der Nacht. Nachts ist das Bild nicht dunkel, da Infrarotstrahlung Temperaturunterschiede erkennen kann. Leider sind niedrige Wolken und Nebel nur schwer von den Bodentemperaturen zu unterscheiden und können daher nachts fast unsichtbar sein. Meteosat-Satellitenbilder für Europa werden alle 5 Minuten in Echtzeit aktualisiert. Die Bilder GOES-16 / GOES-17 (Nord- und Südamerika) und Himawari (Asien) werden alle 10 Minuten aktualisiert.

Niederschläge werden von Radar und Satelliten berechnet. Nachts sind die Niederschlagsberechnungen durch die Satelliten weniger genau als tagsüber.

© 2024 meteoblue, NOAA Satellites GOES-16 and EUMETSAT. Blitzdaten zur Verfügung gestellt von nowcast.

Zum Anfang
×
Hallo,
es scheint, als würden Sie einen Werbeblocker benutzen.

Werbung ist unerlässlich, um unsere kostenlose Website mit einzigartiger Detailtreue und Genauigkeit zu pflegen.

Bitte setzen Sie www.meteoblue.com auf die Whitelist Ihres Werbeblockers oder erwägen Sie den Kauf eines unserer Produkte:

Sie haben bereits ein Abonnement?
Dann melden Sie sich bitte an.